sensor_id;sensor_type;location;lat;lon;timestamp;P1;durP1;ratioP1;P2;durP2;ratioP2
75379;SDS011;65641;44.714;37.756;2024-03-06T00:00:45;12.65;;;10.50;;
75379;SDS011;65641;44.714;37.756;2024-03-06T00:01:48;13.98;;;10.48;;
75379;SDS011;65641;44.714;37.756;2024-03-06T00:02:52;14.30;;;10.02;;
75379;SDS011;65641;44.714;37.756;2024-03-06T00:03:55;13.57;;;10.02;;
75379;SDS011;65641;44.714;37.756;2024-03-06T00:04:59;12.93;;;10.18;;
75379;SDS011;65641;44.714;37.756;2024-03-06T00:06:03;13.82;;;10.35;;
75379;SDS011;65641;44.714;37.756;2024-03-06T00:07:06;13.35;;;9.75;;
75379;SDS011;65641;44.714;37.756;2024-03-06T00:08:10;12.77;;;10.95;;
75379;SDS011;65641;44.714;37.756;2024-03-06T00:09:14;13.10;;;10.65;;
75379;SDS011;65641;44.714;37.756;2024-03-06T00:10:17;14.30;;;9.48;;
75379;SDS011;65641;44.714;37.756;2024-03-06T00:11:20;11.70;;;9.80;;
75379;SDS011;65641;44.714;37.756;2024-03-06T00:12:24;11.20;;;7.47;;
75379;SDS011;65641;44.714;37.756;2024-03-06T00:13:27;13.85;;;9.70;;
75379;SDS011;65641;44.714;37.756;2024-03-06T00:14:31;12.35;;;9.38;;
75379;SDS011;65641;44.714;37.756;2024-03-06T00:15:34;12.20;;;10.27;;
75379;SDS011;65641;44.714;37.756;2024-03-06T00:16:38;12.90;;;8.35;;
75379;SDS011;65641;44.714;37.756;2024-03-06T00:17:42;12.55;;;9.63;;
75379;SDS011;65641;44.714;37.756;2024-03-06T00:18:45;11.50;;;9.38;;
75379;SDS011;65641;44.714;37.756;2024-03-06T00:19:49;12.52;;;9.77;;
75379;SDS011;65641;44.714;37.756;2024-03-06T00:20:52;13.93;;;10.32;;
75379;SDS011;65641;44.714;37.756;2024-03-06T00:21:56;12.60;;;10.80;;
75379;SDS011;65641;44.714;37.756;2024-03-06T00:22:59;12.38;;;9.43;;
75379;SDS011;65641;44.714;37.756;2024-03-06T00:24:03;12.43;;;9.75;;
75379;SDS011;65641;44.714;37.756;2024-03-06T00:25:07;12.27;;;9.05;;
75379;SDS011;65641;44.714;37.756;2024-03-06T00:26:11;12.43;;;10.07;;
75379;SDS011;65641;44.714;37.756;2024-03-06T00:27:15;15.15;;;10.70;;
75379;SDS011;65641;44.714;37.756;2024-03-06T00:28:19;12.35;;;8.32;;
75379;SDS011;65641;44.714;37.756;2024-03-06T00:29:22;13.27;;;9.98;;
75379;SDS011;65641;44.714;37.756;2024-03-06T00:30:26;13.02;;;10.05;;
75379;SDS011;65641;44.714;37.756;2024-03-06T00:31:29;13.07;;;9.65;;
75379;SDS011;65641;44.714;37.756;2024-03-06T00:32:33;13.32;;;9.52;;
75379;SDS011;65641;44.714;37.756;2024-03-06T00:33:36;12.30;;;7.78;;
75379;SDS011;65641;44.714;37.756;2024-03-06T00:34:40;11.30;;;7.38;;
75379;SDS011;65641;44.714;37.756;2024-03-06T00:35:43;13.20;;;9.98;;
75379;SDS011;65641;44.714;37.756;2024-03-06T00:36:47;13.10;;;9.50;;
75379;SDS011;65641;44.714;37.756;2024-03-06T00:37:51;11.95;;;10.20;;
75379;SDS011;65641;44.714;37.756;2024-03-06T00:38:56;13.75;;;10.52;;
75379;SDS011;65641;44.714;37.756;2024-03-06T00:40:00;12.77;;;10.05;;
75379;SDS011;65641;44.714;37.756;2024-03-06T00:41:05;11.02;;;7.63;;
75379;SDS011;65641;44.714;37.756;2024-03-06T00:43:16;13.20;;;9.50;;
75379;SDS011;65641;44.714;37.756;2024-03-06T00:44:20;11.98;;;8.93;;
75379;SDS011;65641;44.714;37.756;2024-03-06T00:45:24;13.80;;;9.98;;
75379;SDS011;65641;44.714;37.756;2024-03-06T00:46:27;12.57;;;9.00;;
75379;SDS011;65641;44.714;37.756;2024-03-06T00:47:31;12.80;;;9.63;;
75379;SDS011;65641;44.714;37.756;2024-03-06T00:48:37;13.13;;;9.63;;
75379;SDS011;65641;44.714;37.756;2024-03-06T00:49:43;13.38;;;9.68;;
75379;SDS011;65641;44.714;37.756;2024-03-06T00:50:47;13.52;;;10.40;;
75379;SDS011;65641;44.714;37.756;2024-03-06T00:51:50;12.63;;;10.02;;
75379;SDS011;65641;44.714;37.756;2024-03-06T00:52:54;13.52;;;10.75;;
75379;SDS011;65641;44.714;37.756;2024-03-06T00:53:57;13.98;;;9.90;;
75379;SDS011;65641;44.714;37.756;2024-03-06T00:55:01;14.25;;;11.05;;
75379;SDS011;65641;44.714;37.756;2024-03-06T00:56:04;11.98;;;9.95;;
75379;SDS011;65641;44.714;37.756;2024-03-06T00:57:09;13.38;;;10.02;;
75379;SDS011;65641;44.714;37.756;2024-03-06T00:58:12;13.25;;;8.55;;
75379;SDS011;65641;44.714;37.756;2024-03-06T00:59:16;13.82;;;11.23;;
75379;SDS011;65641;44.714;37.756;2024-03-06T01:00:20;14.20;;;10.80;;
75379;SDS011;65641;44.714;37.756;2024-03-06T01:01:25;13.85;;;10.15;;
75379;SDS011;65641;44.714;37.756;2024-03-06T01:02:30;14.25;;;9.90;;
75379;SDS011;65641;44.714;37.756;2024-03-06T01:03:34;12.77;;;9.38;;
75379;SDS011;65641;44.714;37.756;2024-03-06T01:04:37;12.63;;;10.55;;
75379;SDS011;65641;44.714;37.756;2024-03-06T01:05:41;12.80;;;8.63;;
75379;SDS011;65641;44.714;37.756;2024-03-06T01:06:45;11.50;;;9.68;;
75379;SDS011;65641;44.714;37.756;2024-03-06T01:07:49;13.07;;;10.13;;
75379;SDS011;65641;44.714;37.756;2024-03-06T01:08:52;14.48;;;11.88;;
75379;SDS011;65641;44.714;37.756;2024-03-06T01:09:57;13.40;;;10.35;;
75379;SDS011;65641;44.714;37.756;2024-03-06T01:11:01;13.48;;;8.75;;
75379;SDS011;65641;44.714;37.756;2024-03-06T01:12:04;12.32;;;8.82;;
75379;SDS011;65641;44.714;37.756;2024-03-06T01:13:08;13.20;;;8.70;;
75379;SDS011;65641;44.714;37.756;2024-03-06T01:14:13;12.98;;;10.05;;
75379;SDS011;65641;44.714;37.756;2024-03-06T01:15:17;13.10;;;9.93;;
75379;SDS011;65641;44.714;37.756;2024-03-06T01:16:20;13.90;;;10.55;;
75379;SDS011;65641;44.714;37.756;2024-03-06T01:17:24;14.02;;;10.32;;
75379;SDS011;65641;44.714;37.756;2024-03-06T01:18:28;13.60;;;10.43;;
75379;SDS011;65641;44.714;37.756;2024-03-06T01:19:31;13.48;;;9.85;;
75379;SDS011;65641;44.714;37.756;2024-03-06T01:20:35;11.93;;;8.85;;
75379;SDS011;65641;44.714;37.756;2024-03-06T01:21:39;14.10;;;10.02;;
75379;SDS011;65641;44.714;37.756;2024-03-06T01:22:44;12.18;;;7.97;;
75379;SDS011;65641;44.714;37.756;2024-03-06T01:23:49;11.63;;;10.00;;
75379;SDS011;65641;44.714;37.756;2024-03-06T01:24:53;13.55;;;10.07;;
75379;SDS011;65641;44.714;37.756;2024-03-06T01:25:56;15.27;;;10.77;;
75379;SDS011;65641;44.714;37.756;2024-03-06T01:27:00;14.90;;;9.40;;
75379;SDS011;65641;44.714;37.756;2024-03-06T01:28:05;15.27;;;10.80;;
75379;SDS011;65641;44.714;37.756;2024-03-06T01:29:09;13.57;;;10.27;;
75379;SDS011;65641;44.714;37.756;2024-03-06T01:30:12;12.45;;;9.98;;
75379;SDS011;65641;44.714;37.756;2024-03-06T01:31:16;13.93;;;9.80;;
75379;SDS011;65641;44.714;37.756;2024-03-06T01:32:19;12.45;;;8.10;;
75379;SDS011;65641;44.714;37.756;2024-03-06T01:33:23;13.63;;;9.93;;
75379;SDS011;65641;44.714;37.756;2024-03-06T01:34:26;12.52;;;9.93;;
75379;SDS011;65641;44.714;37.756;2024-03-06T01:35:30;12.40;;;9.52;;
75379;SDS011;65641;44.714;37.756;2024-03-06T01:36:33;12.80;;;9.95;;
75379;SDS011;65641;44.714;37.756;2024-03-06T01:37:37;12.23;;;9.60;;
75379;SDS011;65641;44.714;37.756;2024-03-06T01:38:40;14.02;;;10.15;;
75379;SDS011;65641;44.714;37.756;2024-03-06T01:39:44;12.35;;;9.25;;
75379;SDS011;65641;44.714;37.756;2024-03-06T01:40:48;13.05;;;9.25;;
75379;SDS011;65641;44.714;37.756;2024-03-06T01:41:51;14.55;;;9.52;;
75379;SDS011;65641;44.714;37.756;2024-03-06T01:42:55;12.27;;;10.23;;
75379;SDS011;65641;44.714;37.756;2024-03-06T01:43:59;13.82;;;9.82;;
75379;SDS011;65641;44.714;37.756;2024-03-06T01:45:02;12.18;;;8.30;;
75379;SDS011;65641;44.714;37.756;2024-03-06T01:46:07;13.23;;;8.05;;
75379;SDS011;65641;44.714;37.756;2024-03-06T01:47:11;12.82;;;9.40;;
75379;SDS011;65641;44.714;37.756;2024-03-06T01:48:17;13.70;;;9.38;;
75379;SDS011;65641;44.714;37.756;2024-03-06T01:49:22;12.52;;;9.43;;
75379;SDS011;65641;44.714;37.756;2024-03-06T01:50:38;11.93;;;9.65;;
75379;SDS011;65641;44.714;37.756;2024-03-06T01:51:42;13.57;;;9.82;;
75379;SDS011;65641;44.714;37.756;2024-03-06T01:52:50;10.98;;;8.98;;
75379;SDS011;65641;44.714;37.756;2024-03-06T01:53:54;12.48;;;8.50;;
75379;SDS011;65641;44.714;37.756;2024-03-06T01:54:58;13.70;;;9.77;;
75379;SDS011;65641;44.714;37.756;2024-03-06T01:56:02;12.50;;;9.63;;
75379;SDS011;65641;44.714;37.756;2024-03-06T01:57:07;13.10;;;9.98;;
75379;SDS011;65641;44.714;37.756;2024-03-06T01:58:13;15.25;;;10.35;;
75379;SDS011;65641;44.714;37.756;2024-03-06T01:59:17;13.52;;;10.05;;
75379;SDS011;65641;44.714;37.756;2024-03-06T02:00:38;12.55;;;9.75;;
75379;SDS011;65641;44.714;37.756;2024-03-06T02:01:41;12.13;;;9.48;;
75379;SDS011;65641;44.714;37.756;2024-03-06T02:02:46;12.60;;;9.75;;
75379;SDS011;65641;44.714;37.756;2024-03-06T02:03:49;15.07;;;10.77;;
75379;SDS011;65641;44.714;37.756;2024-03-06T02:04:55;12.57;;;8.15;;
75379;SDS011;65641;44.714;37.756;2024-03-06T02:06:00;14.57;;;10.93;;
75379;SDS011;65641;44.714;37.756;2024-03-06T02:07:08;12.63;;;10.43;;
75379;SDS011;65641;44.714;37.756;2024-03-06T02:08:16;14.02;;;9.63;;
75379;SDS011;65641;44.714;37.756;2024-03-06T02:09:20;12.43;;;9.75;;
75379;SDS011;65641;44.714;37.756;2024-03-06T02:10:24;13.38;;;9.65;;
75379;SDS011;65641;44.714;37.756;2024-03-06T02:11:29;13.98;;;9.02;;
75379;SDS011;65641;44.714;37.756;2024-03-06T02:12:32;12.85;;;10.00;;
75379;SDS011;65641;44.714;37.756;2024-03-06T02:13:36;13.95;;;10.57;;
75379;SDS011;65641;44.714;37.756;2024-03-06T02:14:40;14.43;;;9.25;;
75379;SDS011;65641;44.714;37.756;2024-03-06T02:15:46;12.45;;;9.95;;
75379;SDS011;65641;44.714;37.756;2024-03-06T02:16:50;12.40;;;9.35;;
75379;SDS011;65641;44.714;37.756;2024-03-06T02:17:53;13.32;;;8.80;;
75379;SDS011;65641;44.714;37.756;2024-03-06T02:18:57;12.30;;;8.73;;
75379;SDS011;65641;44.714;37.756;2024-03-06T02:20:01;11.93;;;8.13;;
75379;SDS011;65641;44.714;37.756;2024-03-06T02:21:08;12.77;;;9.82;;
75379;SDS011;65641;44.714;37.756;2024-03-06T02:22:11;14.93;;;10.70;;
75379;SDS011;65641;44.714;37.756;2024-03-06T02:23:15;15.25;;;9.60;;
75379;SDS011;65641;44.714;37.756;2024-03-06T02:24:20;12.35;;;10.15;;
75379;SDS011;65641;44.714;37.756;2024-03-06T02:25:24;13.45;;;8.75;;
75379;SDS011;65641;44.714;37.756;2024-03-06T02:26:28;12.00;;;9.93;;
75379;SDS011;65641;44.714;37.756;2024-03-06T02:27:31;11.75;;;9.40;;
75379;SDS011;65641;44.714;37.756;2024-03-06T02:28:35;13.45;;;10.30;;
75379;SDS011;65641;44.714;37.756;2024-03-06T02:29:39;13.55;;;9.68;;
75379;SDS011;65641;44.714;37.756;2024-03-06T02:30:43;13.10;;;10.27;;
75379;SDS011;65641;44.714;37.756;2024-03-06T02:31:46;13.13;;;9.95;;
75379;SDS011;65641;44.714;37.756;2024-03-06T02:32:51;13.57;;;9.55;;
75379;SDS011;65641;44.714;37.756;2024-03-06T02:33:54;12.52;;;9.98;;
75379;SDS011;65641;44.714;37.756;2024-03-06T02:34:58;12.63;;;8.20;;
75379;SDS011;65641;44.714;37.756;2024-03-06T02:36:04;12.63;;;9.65;;
75379;SDS011;65641;44.714;37.756;2024-03-06T02:37:08;13.00;;;10.18;;
75379;SDS011;65641;44.714;37.756;2024-03-06T02:38:12;12.68;;;9.75;;
75379;SDS011;65641;44.714;37.756;2024-03-06T02:39:16;12.25;;;9.75;;
75379;SDS011;65641;44.714;37.756;2024-03-06T02:40:20;12.55;;;9.65;;
75379;SDS011;65641;44.714;37.756;2024-03-06T02:41:23;13.13;;;9.80;;
75379;SDS011;65641;44.714;37.756;2024-03-06T02:42:28;11.35;;;7.90;;
75379;SDS011;65641;44.714;37.756;2024-03-06T02:43:33;11.27;;;8.32;;
75379;SDS011;65641;44.714;37.756;2024-03-06T02:44:37;13.05;;;9.50;;
75379;SDS011;65641;44.714;37.756;2024-03-06T02:45:41;11.75;;;8.02;;
75379;SDS011;65641;44.714;37.756;2024-03-06T02:46:47;12.38;;;8.70;;
75379;SDS011;65641;44.714;37.756;2024-03-06T02:48:55;11.98;;;8.95;;
75379;SDS011;65641;44.714;37.756;2024-03-06T02:49:58;13.85;;;9.93;;
75379;SDS011;65641;44.714;37.756;2024-03-06T02:51:02;13.63;;;10.00;;
75379;SDS011;65641;44.714;37.756;2024-03-06T02:52:06;11.27;;;8.23;;
75379;SDS011;65641;44.714;37.756;2024-03-06T02:53:09;12.95;;;9.73;;
75379;SDS011;65641;44.714;37.756;2024-03-06T02:54:13;13.10;;;9.60;;
75379;SDS011;65641;44.714;37.756;2024-03-06T02:55:17;12.23;;;7.90;;
75379;SDS011;65641;44.714;37.756;2024-03-06T02:56:20;13.23;;;10.60;;
75379;SDS011;65641;44.714;37.756;2024-03-06T02:57:26;14.45;;;10.60;;
75379;SDS011;65641;44.714;37.756;2024-03-06T02:58:31;13.52;;;8.65;;
75379;SDS011;65641;44.714;37.756;2024-03-06T02:59:34;12.38;;;9.25;;
75379;SDS011;65641;44.714;37.756;2024-03-06T03:00:41;12.05;;;9.32;;
75379;SDS011;65641;44.714;37.756;2024-03-06T03:01:48;15.07;;;10.27;;
75379;SDS011;65641;44.714;37.756;2024-03-06T03:02:52;13.68;;;10.82;;
75379;SDS011;65641;44.714;37.756;2024-03-06T03:03:55;13.15;;;9.65;;
75379;SDS011;65641;44.714;37.756;2024-03-06T03:05:01;13.07;;;8.93;;
75379;SDS011;65641;44.714;37.756;2024-03-06T03:06:04;12.10;;;8.48;;
75379;SDS011;65641;44.714;37.756;2024-03-06T03:07:08;13.35;;;9.88;;
75379;SDS011;65641;44.714;37.756;2024-03-06T03:08:13;13.30;;;9.23;;
75379;SDS011;65641;44.714;37.756;2024-03-06T03:09:16;14.43;;;10.32;;
75379;SDS011;65641;44.714;37.756;2024-03-06T03:10:20;12.75;;;10.13;;
75379;SDS011;65641;44.714;37.756;2024-03-06T03:11:23;13.95;;;10.20;;
75379;SDS011;65641;44.714;37.756;2024-03-06T03:12:28;14.70;;;11.25;;
75379;SDS011;65641;44.714;37.756;2024-03-06T03:13:31;13.40;;;8.65;;
75379;SDS011;65641;44.714;37.756;2024-03-06T03:14:35;14.10;;;10.48;;
75379;SDS011;65641;44.714;37.756;2024-03-06T03:15:38;14.50;;;11.05;;
75379;SDS011;65641;44.714;37.756;2024-03-06T03:16:43;11.55;;;9.30;;
75379;SDS011;65641;44.714;37.756;2024-03-06T03:17:47;13.27;;;8.23;;
75379;SDS011;65641;44.714;37.756;2024-03-06T03:18:50;13.73;;;8.65;;
75379;SDS011;65641;44.714;37.756;2024-03-06T03:19:54;13.02;;;9.90;;
75379;SDS011;65641;44.714;37.756;2024-03-06T03:20:58;12.82;;;10.40;;
75379;SDS011;65641;44.714;37.756;2024-03-06T03:22:01;15.27;;;10.48;;
75379;SDS011;65641;44.714;37.756;2024-03-06T03:23:07;12.80;;;8.35;;
75379;SDS011;65641;44.714;37.756;2024-03-06T03:24:14;13.75;;;10.50;;
75379;SDS011;65641;44.714;37.756;2024-03-06T03:25:18;13.13;;;8.65;;
75379;SDS011;65641;44.714;37.756;2024-03-06T03:26:24;12.80;;;9.20;;
75379;SDS011;65641;44.714;37.756;2024-03-06T03:27:28;12.63;;;10.88;;
75379;SDS011;65641;44.714;37.756;2024-03-06T03:28:32;14.20;;;10.50;;
75379;SDS011;65641;44.714;37.756;2024-03-06T03:29:35;15.77;;;10.52;;
75379;SDS011;65641;44.714;37.756;2024-03-06T03:30:39;13.48;;;10.20;;
75379;SDS011;65641;44.714;37.756;2024-03-06T03:31:43;13.60;;;9.45;;
75379;SDS011;65641;44.714;37.756;2024-03-06T03:32:46;14.32;;;11.02;;
75379;SDS011;65641;44.714;37.756;2024-03-06T03:33:50;14.57;;;10.13;;
75379;SDS011;65641;44.714;37.756;2024-03-06T03:34:54;13.98;;;11.05;;
75379;SDS011;65641;44.714;37.756;2024-03-06T03:35:58;14.85;;;9.85;;
75379;SDS011;65641;44.714;37.756;2024-03-06T03:37:01;12.75;;;9.60;;
75379;SDS011;65641;44.714;37.756;2024-03-06T03:38:05;13.05;;;8.57;;
75379;SDS011;65641;44.714;37.756;2024-03-06T03:39:10;13.00;;;9.98;;
75379;SDS011;65641;44.714;37.756;2024-03-06T03:40:20;14.30;;;9.48;;
75379;SDS011;65641;44.714;37.756;2024-03-06T03:41:24;16.58;;;11.25;;
75379;SDS011;65641;44.714;37.756;2024-03-06T03:42:28;15.80;;;10.50;;
75379;SDS011;65641;44.714;37.756;2024-03-06T03:43:31;14.35;;;10.52;;
75379;SDS011;65641;44.714;37.756;2024-03-06T03:44:36;16.85;;;10.88;;
75379;SDS011;65641;44.714;37.756;2024-03-06T03:45:39;15.00;;;9.05;;
75379;SDS011;65641;44.714;37.756;2024-03-06T03:46:43;14.68;;;10.52;;
75379;SDS011;65641;44.714;37.756;2024-03-06T03:47:46;14.13;;;10.27;;
75379;SDS011;65641;44.714;37.756;2024-03-06T03:48:50;13.38;;;10.15;;
75379;SDS011;65641;44.714;37.756;2024-03-06T03:49:53;15.38;;;10.93;;
75379;SDS011;65641;44.714;37.756;2024-03-06T03:51:11;12.65;;;9.13;;
75379;SDS011;65641;44.714;37.756;2024-03-06T03:52:15;11.95;;;8.98;;
75379;SDS011;65641;44.714;37.756;2024-03-06T03:53:18;15.05;;;10.20;;
75379;SDS011;65641;44.714;37.756;2024-03-06T03:54:22;13.05;;;10.07;;
75379;SDS011;65641;44.714;37.756;2024-03-06T03:55:26;14.48;;;9.48;;
75379;SDS011;65641;44.714;37.756;2024-03-06T03:56:30;14.32;;;10.88;;
75379;SDS011;65641;44.714;37.756;2024-03-06T03:57:34;16.35;;;10.30;;
75379;SDS011;65641;44.714;37.756;2024-03-06T03:58:37;13.77;;;11.07;;
75379;SDS011;65641;44.714;37.756;2024-03-06T03:59:41;15.35;;;10.35;;
75379;SDS011;65641;44.714;37.756;2024-03-06T04:00:44;15.07;;;10.43;;
75379;SDS011;65641;44.714;37.756;2024-03-06T04:01:48;14.35;;;10.80;;
75379;SDS011;65641;44.714;37.756;2024-03-06T04:02:51;15.63;;;10.52;;
75379;SDS011;65641;44.714;37.756;2024-03-06T04:03:55;16.42;;;10.90;;
75379;SDS011;65641;44.714;37.756;2024-03-06T04:04:58;14.73;;;10.52;;
75379;SDS011;65641;44.714;37.756;2024-03-06T04:06:03;16.02;;;11.93;;
75379;SDS011;65641;44.714;37.756;2024-03-06T04:07:06;15.73;;;10.68;;
75379;SDS011;65641;44.714;37.756;2024-03-06T04:08:10;15.63;;;11.23;;
75379;SDS011;65641;44.714;37.756;2024-03-06T04:09:14;13.90;;;9.80;;
75379;SDS011;65641;44.714;37.756;2024-03-06T04:10:17;14.30;;;9.07;;
75379;SDS011;65641;44.714;37.756;2024-03-06T04:11:21;15.63;;;11.30;;
75379;SDS011;65641;44.714;37.756;2024-03-06T04:12:25;18.23;;;10.85;;
75379;SDS011;65641;44.714;37.756;2024-03-06T04:13:29;16.27;;;11.35;;
75379;SDS011;65641;44.714;37.756;2024-03-06T04:14:32;16.60;;;9.93;;
75379;SDS011;65641;44.714;37.756;2024-03-06T04:15:36;15.80;;;12.40;;
75379;SDS011;65641;44.714;37.756;2024-03-06T04:16:39;14.73;;;11.98;;
75379;SDS011;65641;44.714;37.756;2024-03-06T04:17:43;14.52;;;11.32;;
75379;SDS011;65641;44.714;37.756;2024-03-06T04:18:46;16.00;;;9.32;;
75379;SDS011;65641;44.714;37.756;2024-03-06T04:19:50;14.80;;;10.80;;
75379;SDS011;65641;44.714;37.756;2024-03-06T04:20:53;14.20;;;11.38;;
75379;SDS011;65641;44.714;37.756;2024-03-06T04:21:57;17.05;;;11.07;;
75379;SDS011;65641;44.714;37.756;2024-03-06T04:23:00;17.02;;;11.45;;
75379;SDS011;65641;44.714;37.756;2024-03-06T04:24:05;14.80;;;9.65;;
75379;SDS011;65641;44.714;37.756;2024-03-06T04:25:08;17.70;;;11.43;;
75379;SDS011;65641;44.714;37.756;2024-03-06T04:26:13;15.52;;;11.75;;
75379;SDS011;65641;44.714;37.756;2024-03-06T04:27:16;17.30;;;11.70;;
75379;SDS011;65641;44.714;37.756;2024-03-06T04:28:20;15.27;;;11.57;;
75379;SDS011;65641;44.714;37.756;2024-03-06T04:29:24;16.33;;;12.45;;
75379;SDS011;65641;44.714;37.756;2024-03-06T04:30:27;17.40;;;11.25;;
75379;SDS011;65641;44.714;37.756;2024-03-06T04:31:31;18.08;;;12.48;;
75379;SDS011;65641;44.714;37.756;2024-03-06T04:32:34;17.55;;;11.77;;
75379;SDS011;65641;44.714;37.756;2024-03-06T04:33:38;17.83;;;10.93;;
75379;SDS011;65641;44.714;37.756;2024-03-06T04:34:43;16.75;;;12.02;;
75379;SDS011;65641;44.714;37.756;2024-03-06T04:35:47;14.52;;;11.27;;
75379;SDS011;65641;44.714;37.756;2024-03-06T04:36:51;16.77;;;11.82;;
75379;SDS011;65641;44.714;37.756;2024-03-06T04:37:54;16.23;;;11.65;;
75379;SDS011;65641;44.714;37.756;2024-03-06T04:38:58;16.05;;;12.70;;
75379;SDS011;65641;44.714;37.756;2024-03-06T04:40:03;19.27;;;12.82;;
75379;SDS011;65641;44.714;37.756;2024-03-06T04:41:10;17.88;;;12.40;;
75379;SDS011;65641;44.714;37.756;2024-03-06T04:42:14;16.67;;;11.38;;
75379;SDS011;65641;44.714;37.756;2024-03-06T04:43:18;19.65;;;12.32;;
75379;SDS011;65641;44.714;37.756;2024-03-06T04:44:21;18.15;;;11.80;;
75379;SDS011;65641;44.714;37.756;2024-03-06T04:45:25;16.95;;;10.40;;
75379;SDS011;65641;44.714;37.756;2024-03-06T04:46:28;17.17;;;10.35;;
75379;SDS011;65641;44.714;37.756;2024-03-06T04:47:33;18.30;;;12.27;;
75379;SDS011;65641;44.714;37.756;2024-03-06T04:48:36;16.30;;;12.23;;
75379;SDS011;65641;44.714;37.756;2024-03-06T04:49:39;19.85;;;13.48;;
75379;SDS011;65641;44.714;37.756;2024-03-06T04:50:43;16.85;;;12.27;;
75379;SDS011;65641;44.714;37.756;2024-03-06T04:51:47;19.10;;;13.65;;
75379;SDS011;65641;44.714;37.756;2024-03-06T04:52:51;17.80;;;11.70;;
75379;SDS011;65641;44.714;37.756;2024-03-06T04:53:54;20.30;;;12.88;;
75379;SDS011;65641;44.714;37.756;2024-03-06T04:54:58;16.05;;;10.15;;
75379;SDS011;65641;44.714;37.756;2024-03-06T04:56:01;16.83;;;12.60;;
75379;SDS011;65641;44.714;37.756;2024-03-06T04:57:05;17.85;;;12.80;;
75379;SDS011;65641;44.714;37.756;2024-03-06T04:58:08;18.80;;;13.20;;
75379;SDS011;65641;44.714;37.756;2024-03-06T04:59:12;17.25;;;11.63;;
75379;SDS011;65641;44.714;37.756;2024-03-06T05:00:16;16.70;;;11.90;;
75379;SDS011;65641;44.714;37.756;2024-03-06T05:01:21;17.00;;;12.52;;
75379;SDS011;65641;44.714;37.756;2024-03-06T05:02:24;19.98;;;13.07;;
75379;SDS011;65641;44.714;37.756;2024-03-06T05:03:31;18.90;;;13.68;;
75379;SDS011;65641;44.714;37.756;2024-03-06T05:04:52;16.65;;;11.70;;
75379;SDS011;65641;44.714;37.756;2024-03-06T05:06:12;19.00;;;13.45;;
75379;SDS011;65641;44.714;37.756;2024-03-06T05:07:32;15.13;;;10.02;;
75379;SDS011;65641;44.714;37.756;2024-03-06T05:08:53;17.83;;;13.45;;
75379;SDS011;65641;44.714;37.756;2024-03-06T05:10:14;20.20;;;12.00;;
75379;SDS011;65641;44.714;37.756;2024-03-06T05:11:36;18.67;;;12.63;;
75379;SDS011;65641;44.714;37.756;2024-03-06T05:12:58;18.52;;;12.75;;
75379;SDS011;65641;44.714;37.756;2024-03-06T05:14:18;17.40;;;12.88;;
75379;SDS011;65641;44.714;37.756;2024-03-06T05:15:40;19.80;;;13.70;;
75379;SDS011;65641;44.714;37.756;2024-03-06T05:17:00;19.90;;;11.77;;
75379;SDS011;65641;44.714;37.756;2024-03-06T05:18:20;19.10;;;12.75;;
75379;SDS011;65641;44.714;37.756;2024-03-06T05:19:41;20.02;;;13.57;;
75379;SDS011;65641;44.714;37.756;2024-03-06T05:21:03;17.25;;;11.23;;
75379;SDS011;65641;44.714;37.756;2024-03-06T05:22:25;18.40;;;10.57;;
75379;SDS011;65641;44.714;37.756;2024-03-06T05:23:46;16.83;;;12.65;;
75379;SDS011;65641;44.714;37.756;2024-03-06T05:25:07;19.42;;;13.50;;
75379;SDS011;65641;44.714;37.756;2024-03-06T05:26:28;16.83;;;11.00;;
75379;SDS011;65641;44.714;37.756;2024-03-06T05:27:49;18.00;;;13.15;;
75379;SDS011;65641;44.714;37.756;2024-03-06T05:29:10;17.80;;;13.65;;
75379;SDS011;65641;44.714;37.756;2024-03-06T05:30:30;17.67;;;12.57;;
75379;SDS011;65641;44.714;37.756;2024-03-06T05:31:50;18.35;;;11.88;;
75379;SDS011;65641;44.714;37.756;2024-03-06T05:33:11;18.17;;;13.00;;
75379;SDS011;65641;44.714;37.756;2024-03-06T05:34:32;16.83;;;12.80;;
75379;SDS011;65641;44.714;37.756;2024-03-06T05:35:53;17.75;;;12.80;;
75379;SDS011;65641;44.714;37.756;2024-03-06T05:37:14;17.15;;;12.90;;
75379;SDS011;65641;44.714;37.756;2024-03-06T05:38:34;18.90;;;12.90;;
75379;SDS011;65641;44.714;37.756;2024-03-06T05:39:55;17.83;;;13.02;;
75379;SDS011;65641;44.714;37.756;2024-03-06T05:41:15;18.80;;;13.98;;
75379;SDS011;65641;44.714;37.756;2024-03-06T05:42:38;18.35;;;12.82;;
75379;SDS011;65641;44.714;37.756;2024-03-06T05:43:59;17.63;;;12.65;;
75379;SDS011;65641;44.714;37.756;2024-03-06T05:45:19;19.30;;;12.90;;
75379;SDS011;65641;44.714;37.756;2024-03-06T05:46:40;17.77;;;12.77;;
75379;SDS011;65641;44.714;37.756;2024-03-06T05:48:01;17.95;;;13.20;;
75379;SDS011;65641;44.714;37.756;2024-03-06T05:49:24;17.33;;;13.18;;
75379;SDS011;65641;44.714;37.756;2024-03-06T05:50:45;19.08;;;13.55;;
75379;SDS011;65641;44.714;37.756;2024-03-06T05:52:06;18.67;;;11.00;;
75379;SDS011;65641;44.714;37.756;2024-03-06T05:53:26;18.75;;;12.80;;
75379;SDS011;65641;44.714;37.756;2024-03-06T05:54:47;18.08;;;12.65;;
75379;SDS011;65641;44.714;37.756;2024-03-06T05:56:08;17.88;;;12.55;;
75379;SDS011;65641;44.714;37.756;2024-03-06T05:57:30;16.38;;;12.05;;
75379;SDS011;65641;44.714;37.756;2024-03-06T05:58:51;17.35;;;12.63;;
75379;SDS011;65641;44.714;37.756;2024-03-06T05:59:54;16.42;;;12.77;;
75379;SDS011;65641;44.714;37.756;2024-03-06T06:00:58;18.70;;;12.98;;
75379;SDS011;65641;44.714;37.756;2024-03-06T06:02:02;17.70;;;13.60;;
75379;SDS011;65641;44.714;37.756;2024-03-06T06:03:07;16.30;;;12.60;;
75379;SDS011;65641;44.714;37.756;2024-03-06T06:04:14;18.33;;;13.10;;
75379;SDS011;65641;44.714;37.756;2024-03-06T06:05:18;15.60;;;12.80;;
75379;SDS011;65641;44.714;37.756;2024-03-06T06:06:25;20.73;;;14.07;;
75379;SDS011;65641;44.714;37.756;2024-03-06T06:07:29;16.80;;;12.95;;
75379;SDS011;65641;44.714;37.756;2024-03-06T06:08:33;20.00;;;14.38;;
75379;SDS011;65641;44.714;37.756;2024-03-06T06:09:37;17.65;;;13.85;;
75379;SDS011;65641;44.714;37.756;2024-03-06T06:10:40;17.05;;;13.20;;
75379;SDS011;65641;44.714;37.756;2024-03-06T06:11:44;18.40;;;14.13;;
75379;SDS011;65641;44.714;37.756;2024-03-06T06:12:48;18.30;;;13.95;;
75379;SDS011;65641;44.714;37.756;2024-03-06T06:13:52;15.55;;;12.40;;
75379;SDS011;65641;44.714;37.756;2024-03-06T06:14:56;16.38;;;12.50;;
75379;SDS011;65641;44.714;37.756;2024-03-06T06:15:59;17.85;;;13.45;;
75379;SDS011;65641;44.714;37.756;2024-03-06T06:17:05;17.90;;;11.60;;
75379;SDS011;65641;44.714;37.756;2024-03-06T06:18:09;18.23;;;12.73;;
75379;SDS011;65641;44.714;37.756;2024-03-06T06:19:13;16.25;;;12.93;;
75379;SDS011;65641;44.714;37.756;2024-03-06T06:20:16;16.63;;;13.10;;
75379;SDS011;65641;44.714;37.756;2024-03-06T06:21:21;16.83;;;11.50;;
75379;SDS011;65641;44.714;37.756;2024-03-06T06:22:27;18.45;;;13.65;;
75379;SDS011;65641;44.714;37.756;2024-03-06T06:23:30;15.13;;;12.65;;
75379;SDS011;65641;44.714;37.756;2024-03-06T06:24:34;16.83;;;13.43;;
75379;SDS011;65641;44.714;37.756;2024-03-06T06:25:38;17.05;;;13.60;;